Time;durP1;ratioP1;P1;durP2;ratioP2;P2;SDS_P1;SDS_P2;PMS_P1;PMS_P2;Temp;Humidity;BMP_temperature;BMP_pressure;BME280_temperature;BME280_humidity;BME280_pressure;Samples;Min_cycle;Max_cycle;Signal;HPM_P1;HPM_P2
2021/03/11 00:00:09;;;;;;;17.30;9.83;;;6.50;84.00;;;;;;5113736;28;20447;-82
2021/03/11 00:02:35;;;;;;;17.20;10.50;;;6.60;83.90;;;;;;5113740;28;20435;-82
2021/03/11 00:05:01;;;;;;;16.20;10.47;;;6.50;83.50;;;;;;5113551;28;20486;-81
2021/03/11 00:07:27;;;;;;;15.27;10.47;;;6.50;84.80;;;;;;5113714;28;20437;-81
2021/03/11 00:09:54;;;;;;;15.80;9.80;;;6.50;85.30;;;;;;5113314;28;20991;-82
2021/03/11 00:12:20;;;;;;;13.57;9.07;;;6.50;85.00;;;;;;5113622;28;20450;-81
2021/03/11 00:14:46;;;;;;;15.10;10.20;;;6.40;85.20;;;;;;5113351;28;20442;-81
2021/03/11 00:17:13;;;;;;;14.30;9.17;;;6.40;86.10;;;;;;5113501;28;20462;-81
2021/03/11 00:19:39;;;;;;;13.57;9.07;;;6.50;85.90;;;;;;5113541;28;20443;-81
2021/03/11 00:22:06;;;;;;;14.13;9.43;;;6.50;85.60;;;;;;5113504;28;20779;-81
2021/03/11 00:24:32;;;;;;;18.50;10.57;;;6.50;86.30;;;;;;5113434;28;20489;-81
2021/03/11 00:26:58;;;;;;;16.63;9.53;;;6.50;85.60;;;;;;5113097;28;20545;-81
2021/03/11 00:29:24;;;;;;;15.03;8.80;;;6.60;85.70;;;;;;5113005;28;20481;-81
2021/03/11 00:31:51;;;;;;;15.50;9.10;;;6.60;85.90;;;;;;5113424;28;20492;-81
2021/03/11 00:34:18;;;;;;;14.67;9.13;;;6.60;85.80;;;;;;5113440;28;20435;-81
2021/03/11 00:36:44;;;;;;;16.50;9.87;;;6.60;85.70;;;;;;5113345;28;20463;-81
2021/03/11 00:39:10;;;;;;;15.30;9.27;;;6.60;86.30;;;;;;5113367;28;20449;-81
2021/03/11 00:41:36;;;;;;;14.30;9.60;;;6.60;86.40;;;;;;5113359;28;20453;-81
2021/03/11 00:44:03;;;;;;;11.27;8.30;;;6.60;86.60;;;;;;5114529;28;20474;-81
2021/03/11 00:46:29;;;;;;;10.67;7.50;;;6.50;87.10;;;;;;5116781;27;21019;-82
2021/03/11 00:48:55;;;;;;;15.00;9.30;;;6.50;87.80;;;;;;5117143;28;20443;-81
2021/03/11 00:51:22;;;;;;;13.57;8.33;;;6.60;88.50;;;;;;5117898;28;20447;-81
2021/03/11 00:53:49;;;;;;;15.37;8.60;;;6.70;88.30;;;;;;5117010;28;20447;-81
2021/03/11 00:56:15;;;;;;;13.73;8.70;;;6.60;88.30;;;;;;5116615;28;20981;-81
2021/03/11 00:58:41;;;;;;;14.47;8.37;;;6.70;89.30;;;;;;5116957;28;20450;-81
2021/03/11 01:01:07;;;;;;;11.63;7.50;;;6.60;88.10;;;;;;5116868;28;20439;-81
2021/03/11 01:03:33;;;;;;;10.90;7.50;;;6.70;87.10;;;;;;5116718;28;20482;-81
2021/03/11 01:06:00;;;;;;;12.03;7.63;;;6.70;87.30;;;;;;5116715;28;20535;-81
2021/03/11 01:08:27;;;;;;;11.67;7.23;;;6.70;87.10;;;;;;5116402;28;20958;-81
2021/03/11 01:10:53;;;;;;;11.60;6.37;;;6.80;87.90;;;;;;5116388;28;20447;-81
2021/03/11 01:13:19;;;;;;;12.83;7.37;;;6.80;87.50;;;;;;5116669;28;20450;-82
2021/03/11 01:15:46;;;;;;;9.47;6.77;;;6.80;87.90;;;;;;5116209;28;20474;-81
2021/03/11 01:18:13;;;;;;;10.20;6.17;;;6.90;88.00;;;;;;5116559;28;20492;-82
2021/03/11 01:20:40;;;;;;;10.03;6.37;;;6.90;88.10;;;;;;5116179;28;20443;-82
2021/03/11 01:23:07;;;;;;;7.97;5.70;;;6.90;88.60;;;;;;5116068;28;20815;-81
2021/03/11 01:25:34;;;;;;;8.93;6.23;;;7.00;88.90;;;;;;5116061;28;20990;-81
2021/03/11 01:28:01;;;;;;;9.23;5.13;;;7.00;90.00;;;;;;5115887;28;20479;-82
2021/03/11 01:30:27;;;;;;;10.00;5.07;;;6.90;89.50;;;;;;5116350;28;20435;-81
2021/03/11 01:32:53;;;;;;;6.57;5.20;;;7.00;89.80;;;;;;5115970;28;20938;-81
2021/03/11 01:35:19;;;;;;;9.00;4.63;;;7.00;90.00;;;;;;5116126;28;20435;-82
2021/03/11 01:37:45;;;;;;;7.53;4.17;;;7.00;90.20;;;;;;5115843;28;20803;-82
2021/03/11 01:40:12;;;;;;;7.60;3.83;;;7.00;90.60;;;;;;5116065;28;20485;-81
2021/03/11 01:42:40;;;;;;;4.00;3.10;;;7.00;91.10;;;;;;5116091;27;20462;-82
2021/03/11 01:45:08;;;;;;;5.43;3.40;;;7.00;91.30;;;;;;5115901;28;20507;-82
2021/03/11 01:47:34;;;;;;;3.30;2.83;;;7.00;91.50;;;;;;5114832;28;20447;-82
2021/03/11 01:50:01;;;;;;;4.43;3.57;;;7.00;91.80;;;;;;5115962;28;20443;-81
2021/03/11 01:52:27;;;;;;;5.47;3.60;;;7.00;92.10;;;;;;5115934;28;20450;-81
2021/03/11 01:54:53;;;;;;;4.03;2.90;;;7.00;92.40;;;;;;5115754;28;20446;-82
2021/03/11 01:57:20;;;;;;;7.00;3.40;;;7.00;92.20;;;;;;5114963;28;21004;-81
2021/03/11 01:59:48;;;;;;;4.67;3.47;;;6.90;92.20;;;;;;5115796;28;20443;-80
2021/03/11 02:02:15;;;;;;;5.63;3.13;;;6.90;92.40;;;;;;5115427;28;20834;-80
2021/03/11 02:04:41;;;;;;;5.50;3.40;;;6.90;92.70;;;;;;5115623;28;20478;-79
2021/03/11 02:07:07;;;;;;;4.67;3.33;;;6.90;92.50;;;;;;5115261;27;20463;-80
2021/03/11 02:09:33;;;;;;;5.40;4.07;;;7.00;92.20;;;;;;5115618;28;20443;-79
2021/03/11 02:12:06;;;;;;;4.40;3.73;;;6.90;92.20;;;;;;5115521;28;20455;-79
2021/03/11 02:14:41;;;;;;;4.70;3.13;;;7.00;92.30;;;;;;5115526;28;20442;-79
2021/03/11 02:17:09;;;;;;;6.23;4.00;;;7.00;92.10;;;;;;5115088;28;21069;-79
2021/03/11 02:20:00;;;;;;;6.47;3.47;;;6.90;92.20;;;;;;5115405;28;20450;-79
2021/03/11 02:22:39;;;;;;;6.70;3.60;;;6.90;92.60;;;;;;5115403;28;20431;-79
2021/03/11 02:25:10;;;;;;;7.20;4.00;;;6.90;92.50;;;;;;5115170;28;20463;-79
2021/03/11 02:28:01;;;;;;;7.13;4.27;;;6.90;92.40;;;;;;5115271;28;20434;-80
2021/03/11 02:30:28;;;;;;;4.80;3.67;;;6.90;92.40;;;;;;5115197;28;20516;-79
2021/03/11 02:32:56;;;;;;;5.97;4.00;;;6.90;92.10;;;;;;5115386;28;20454;-87
2021/03/11 02:35:23;;;;;;;5.60;4.17;;;6.90;91.70;;;;;;5115760;28;20842;-87
2021/03/11 02:37:52;;;;;;;5.63;3.60;;;6.90;91.50;;;;;;5115792;28;20446;-87
2021/03/11 02:40:21;;;;;;;7.17;3.83;;;7.00;91.30;;;;;;5115409;28;20576;-87
2021/03/11 02:42:49;;;;;;;6.63;4.30;;;7.00;91.10;;;;;;5115560;28;20451;-87
2021/03/11 02:45:19;;;;;;;8.83;4.47;;;7.00;90.60;;;;;;5115394;28;20483;-86
2021/03/11 02:47:47;;;;;;;7.10;4.27;;;7.00;90.60;;;;;;5115337;28;20435;-87
2021/03/11 02:50:14;;;;;;;8.60;4.37;;;7.00;90.60;;;;;;5115517;28;20454;-87
2021/03/11 02:52:41;;;;;;;7.63;4.10;;;7.00;90.30;;;;;;5115517;27;20930;-87
2021/03/11 02:55:08;;;;;;;8.10;5.03;;;7.00;90.40;;;;;;5115246;28;20857;-87
2021/03/11 02:57:38;;;;;;;9.40;4.40;;;7.00;90.20;;;;;;5115308;28;20450;-88
2021/03/11 03:00:06;;;;;;;8.30;4.93;;;7.10;89.80;;;;;;5115373;28;20443;-87
2021/03/11 03:02:33;;;;;;;7.80;4.77;;;7.10;89.30;;;;;;5121124;28;20439;-87
2021/03/11 03:05:01;;;;;;;7.03;4.60;;;7.10;89.60;;;;;;5119036;28;20523;-87
2021/03/11 03:07:29;;;;;;;5.23;3.90;;;7.00;89.80;;;;;;5114220;28;20451;-87
2021/03/11 03:09:57;;;;;;;6.77;4.47;;;7.00;89.30;;;;;;5114942;28;20496;-87
2021/03/11 03:12:25;;;;;;;5.83;4.50;;;7.00;89.70;;;;;;5114898;28;20439;-87
2021/03/11 03:14:53;;;;;;;5.80;4.50;;;7.10;89.60;;;;;;5114845;28;20462;-87
2021/03/11 03:17:21;;;;;;;8.33;4.57;;;7.00;90.30;;;;;;5114878;28;20463;-87
2021/03/11 03:19:49;;;;;;;6.70;4.10;;;7.10;90.80;;;;;;5114969;28;20496;-87
2021/03/11 03:22:18;;;;;;;6.13;4.13;;;7.10;90.70;;;;;;5114569;28;20427;-87
2021/03/11 03:24:45;;;;;;;6.63;3.40;;;7.10;91.00;;;;;;5114758;28;20497;-86
2021/03/11 03:27:14;;;;;;;5.23;3.20;;;7.10;91.10;;;;;;5114388;28;20459;-87
2021/03/11 03:29:41;;;;;;;4.60;2.93;;;7.10;91.60;;;;;;5114357;28;20487;-87
2021/03/11 03:32:08;;;;;;;3.10;2.70;;;7.30;92.10;;;;;;5114622;28;20446;-87
2021/03/11 03:34:34;;;;;;;2.70;2.33;;;7.40;92.50;;;;;;5114461;28;20434;-88
2021/03/11 03:37:00;;;;;;;6.57;2.50;;;7.50;92.80;;;;;;5114645;28;20459;-87
2021/03/11 03:39:28;;;;;;;4.10;2.70;;;7.60;93.00;;;;;;5114662;28;20941;-87
2021/03/11 03:41:56;;;;;;;2.60;2.20;;;7.70;93.10;;;;;;5114492;28;20435;-87
2021/03/11 03:44:25;;;;;;;5.57;3.10;;;7.80;93.30;;;;;;5114593;28;20470;-87
2021/03/11 03:46:53;;;;;;;5.43;2.40;;;7.80;93.10;;;;;;5114280;28;20499;-87
2021/03/11 03:49:20;;;;;;;3.87;3.07;;;7.80;93.40;;;;;;5114338;28;20443;-87
2021/03/11 03:51:48;;;;;;;3.60;2.90;;;7.90;93.60;;;;;;5114110;28;20431;-87
2021/03/11 03:54:20;;;;;;;9.60;2.73;;;7.90;93.70;;;;;;5114143;28;20439;-87
2021/03/11 03:56:53;;;;;;;3.43;3.13;;;7.90;93.90;;;;;;5114508;28;20463;-87
2021/03/11 03:59:24;;;;;;;5.83;2.17;;;7.90;94.10;;;;;;5114230;28;20431;-87
2021/03/11 04:01:54;;;;;;;4.10;2.27;;;8.00;94.40;;;;;;5114335;28;20443;-87
2021/03/11 04:04:21;;;;;;;3.90;2.70;;;8.00;94.60;;;;;;5114220;28;20489;-87
2021/03/11 04:06:48;;;;;;;6.87;2.53;;;8.00;94.80;;;;;;5114265;28;20515;-87
2021/03/11 04:09:15;;;;;;;4.27;2.40;;;8.00;95.10;;;;;;5114275;28;20442;-87
2021/03/11 04:11:44;;;;;;;2.70;2.37;;;8.00;95.10;;;;;;5114194;28;20496;-87
2021/03/11 04:14:12;;;;;;;4.00;2.83;;;8.10;95.50;;;;;;5114045;28;20443;-88
2021/03/11 04:16:41;;;;;;;2.77;2.33;;;8.10;95.60;;;;;;5114019;28;20561;-87
2021/03/11 04:19:08;;;;;;;3.80;2.60;;;8.00;96.00;;;;;;5115612;28;20447;-87
2021/03/11 04:21:34;;;;;;;4.77;2.57;;;8.10;96.30;;;;;;5118304;28;20450;-87
2021/03/11 04:24:01;;;;;;;2.30;2.10;;;8.10;96.30;;;;;;5118219;28;20483;-87
2021/03/11 04:26:28;;;;;;;5.23;2.40;;;8.10;96.60;;;;;;5118095;28;20463;-87
2021/03/11 04:28:54;;;;;;;8.27;3.10;;;8.10;96.80;;;;;;5117846;28;20470;-87
2021/03/11 04:31:21;;;;;;;5.53;2.50;;;8.10;96.80;;;;;;5117791;28;20467;-87
2021/03/11 04:33:48;;;;;;;3.40;2.67;;;8.20;96.80;;;;;;5117723;28;20435;-87
2021/03/11 04:36:15;;;;;;;3.40;2.60;;;8.20;97.10;;;;;;5118046;27;20474;-87
2021/03/11 04:38:42;;;;;;;4.03;2.40;;;8.20;97.30;;;;;;5118121;28;20435;-87
2021/03/11 04:41:09;;;;;;;4.17;2.47;;;8.20;97.30;;;;;;5117725;28;20439;-86
2021/03/11 04:43:36;;;;;;;3.40;2.13;;;8.10;97.60;;;;;;5117678;28;20450;-87
2021/03/11 04:46:03;;;;;;;3.73;2.33;;;8.10;97.70;;;;;;5117246;28;21038;-87
2021/03/11 04:48:32;;;;;;;3.10;2.20;;;8.10;98.00;;;;;;5117749;27;20501;-87
2021/03/11 04:50:59;;;;;;;2.63;2.20;;;8.20;98.30;;;;;;5117306;27;20439;-87
2021/03/11 04:53:26;;;;;;;3.73;3.13;;;8.20;98.10;;;;;;5117726;28;20446;-87
2021/03/11 04:55:52;;;;;;;4.53;2.53;;;8.20;98.30;;;;;;5117281;27;20985;-86
2021/03/11 04:58:18;;;;;;;2.00;1.80;;;8.20;98.50;;;;;;5117156;28;20443;-87
2021/03/11 05:00:47;;;;;;;2.53;2.30;;;8.10;98.60;;;;;;5117518;28;20447;-87
2021/03/11 05:03:14;;;;;;;2.67;2.03;;;8.20;98.80;;;;;;5127350;28;20435;-87
2021/03/11 05:05:43;;;;;;;2.70;2.47;;;8.10;98.80;;;;;;5117265;28;20486;-87
2021/03/11 05:08:10;;;;;;;4.07;2.50;;;8.20;99.10;;;;;;5117256;27;20456;-87
2021/03/11 05:10:37;;;;;;;3.80;2.33;;;8.20;99.10;;;;;;5117262;27;20446;-87
2021/03/11 05:13:04;;;;;;;4.63;2.63;;;8.20;99.10;;;;;;5116811;28;20453;-78
2021/03/11 05:15:30;;;;;;;3.40;2.70;;;8.20;99.20;;;;;;5116527;28;20463;-78
2021/03/11 05:17:57;;;;;;;3.40;2.17;;;8.20;99.50;;;;;;5116488;28;20451;-77
2021/03/11 05:20:25;;;;;;;4.73;3.30;;;8.10;99.70;;;;;;5116225;28;20454;-77
2021/03/11 05:22:52;;;;;;;2.37;2.17;;;8.00;99.90;;;;;;5116446;28;20439;-77
2021/03/11 05:25:18;;;;;;;2.67;2.00;;;8.00;99.90;;;;;;5116352;28;20467;-77
2021/03/11 05:27:45;;;;;;;3.47;2.57;;;8.00;99.90;;;;;;5115903;28;20486;-78
2021/03/11 05:30:13;;;;;;;6.13;2.40;;;8.00;99.90;;;;;;5115529;28;20432;-78
2021/03/11 05:32:39;;;;;;;3.20;2.47;;;8.00;99.90;;;;;;5116236;28;20447;-78
2021/03/11 05:35:07;;;;;;;2.93;2.40;;;7.90;99.90;;;;;;5116580;28;20799;-78
2021/03/11 05:37:36;;;;;;;2.63;2.00;;;7.90;99.90;;;;;;5115964;28;20447;-78
2021/03/11 05:40:06;;;;;;;4.63;2.37;;;7.90;99.90;;;;;;5115859;28;20960;-78
2021/03/11 05:42:33;;;;;;;2.37;2.17;;;7.90;99.90;;;;;;5116079;28;20443;-78
2021/03/11 05:45:03;;;;;;;2.87;2.30;;;7.90;99.90;;;;;;5115629;28;20993;-78
2021/03/11 05:47:31;;;;;;;2.90;2.07;;;8.00;99.90;;;;;;5116029;28;20435;-78
2021/03/11 05:49:58;;;;;;;3.23;2.07;;;8.10;99.90;;;;;;5115659;28;20454;-78
2021/03/11 05:52:24;;;;;;;2.70;2.33;;;8.00;99.90;;;;;;5115929;28;20446;-78
2021/03/11 05:54:51;;;;;;;4.67;2.80;;;8.00;99.90;;;;;;5115905;28;20443;-78
2021/03/11 05:57:19;;;;;;;3.67;2.10;;;8.00;99.90;;;;;;5115496;28;20451;-77
2021/03/11 05:59:45;;;;;;;6.33;2.50;;;8.10;99.90;;;;;;5115510;28;20965;-77
2021/03/11 06:02:11;;;;;;;2.43;2.13;;;8.20;99.90;;;;;;5115748;28;20851;-77
2021/03/11 06:04:40;;;;;;;2.33;2.13;;;8.20;99.90;;;;;;5115593;28;20482;-78
2021/03/11 06:07:07;;;;;;;5.27;1.80;;;8.20;99.90;;;;;;5115595;28;20467;-78
2021/03/11 06:09:33;;;;;;;2.97;2.17;;;8.20;99.90;;;;;;5115247;28;20457;-77
2021/03/11 06:12:00;;;;;;;1.63;1.47;;;8.10;99.90;;;;;;5115549;27;20446;-77
2021/03/11 06:14:34;;;;;;;3.50;2.33;;;8.10;99.90;;;;;;5115489;28;20454;-77
2021/03/11 06:17:06;;;;;;;2.33;2.03;;;8.10;99.90;;;;;;5115065;28;20882;-77
2021/03/11 06:19:33;;;;;;;2.97;2.00;;;8.10;99.90;;;;;;5115416;28;20439;-77
2021/03/11 06:22:00;;;;;;;2.13;1.93;;;8.20;99.90;;;;;;5115033;28;20462;-77
2021/03/11 06:24:26;;;;;;;2.57;2.37;;;8.20;99.90;;;;;;5115311;28;20471;-77
2021/03/11 06:26:52;;;;;;;3.40;2.30;;;8.30;99.90;;;;;;5115425;28;20470;-86
2021/03/11 06:29:20;;;;;;;2.93;1.80;;;8.30;99.90;;;;;;5115112;27;20483;-87
2021/03/11 06:31:48;;;;;;;5.03;1.90;;;8.30;99.90;;;;;;5115809;28;20820;-86
2021/03/11 06:34:22;;;;;;;1.90;1.80;;;8.40;99.90;;;;;;5115566;28;20529;-87
2021/03/11 06:36:49;;;;;;;2.90;2.27;;;8.40;99.90;;;;;;5115409;28;20463;-87
2021/03/11 06:39:25;;;;;;;1.70;1.60;;;8.40;99.90;;;;;;5115710;28;20470;-87
2021/03/11 06:41:51;;;;;;;2.00;1.83;;;8.50;99.90;;;;;;5115385;28;20451;-86
2021/03/11 06:44:18;;;;;;;2.00;1.57;;;8.50;99.90;;;;;;5115065;28;21035;-86
2021/03/11 06:46:59;;;;;;;2.73;1.93;;;8.60;99.90;;;;;;5115395;28;20532;-86
2021/03/11 06:49:25;;;;;;;1.53;1.20;;;8.60;99.90;;;;;;5115287;28;20451;-87
2021/03/11 06:52:07;;;;;;;2.43;2.23;;;8.60;99.90;;;;;;5114802;28;20981;-86
2021/03/11 06:54:52;;;;;;;2.73;1.40;;;8.60;99.90;;;;;;5115208;28;20411;-86
2021/03/11 06:57:32;;;;;;;2.10;1.70;;;8.70;99.90;;;;;;5115077;28;20485;-86
2021/03/11 06:59:59;;;;;;;1.83;1.73;;;8.70;99.90;;;;;;5115087;28;20435;-87
2021/03/11 07:02:28;;;;;;;2.07;1.60;;;8.80;99.90;;;;;;5114866;28;20455;-81
2021/03/11 07:04:55;;;;;;;2.27;1.50;;;8.80;99.90;;;;;;5114140;28;20853;-82
2021/03/11 07:07:23;;;;;;;2.77;2.47;;;8.80;99.90;;;;;;5114133;28;20467;-81
2021/03/11 07:09:52;;;;;;;2.90;1.53;;;8.80;99.90;;;;;;5114477;28;20507;-81
2021/03/11 07:12:19;;;;;;;1.83;1.73;;;8.90;99.90;;;;;;5114317;28;20482;-81
2021/03/11 07:14:48;;;;;;;1.50;1.40;;;9.00;99.90;;;;;;5114256;28;20447;-81
2021/03/11 07:17:22;;;;;;;1.70;1.60;;;9.00;99.90;;;;;;5113844;28;20982;-81
2021/03/11 07:20:08;;;;;;;2.30;1.30;;;9.10;99.90;;;;;;5113960;27;20946;-81
2021/03/11 07:22:35;;;;;;;3.90;1.13;;;9.10;99.90;;;;;;5113641;28;20938;-82
2021/03/11 07:25:01;;;;;;;2.60;1.30;;;9.20;99.90;;;;;;5114121;28;20485;-81
2021/03/11 07:27:39;;;;;;;1.80;1.70;;;9.30;99.90;;;;;;5113895;28;20479;-82
2021/03/11 07:30:07;;;;;;;1.40;1.30;;;9.40;99.90;;;;;;5114239;28;20476;-82
2021/03/11 07:32:34;;;;;;;1.20;1.10;;;9.50;99.90;;;;;;5114092;28;20447;-82
2021/03/11 07:35:01;;;;;;;2.50;1.40;;;9.50;99.90;;;;;;5114041;28;20449;-81
2021/03/11 07:37:29;;;;;;;1.30;1.20;;;9.60;99.90;;;;;;5113702;28;20485;-82
2021/03/11 07:39:59;;;;;;;3.10;1.47;;;9.50;99.90;;;;;;5113952;28;20455;-81
2021/03/11 07:42:26;;;;;;;1.23;1.13;;;9.60;99.90;;;;;;5113995;28;20446;-82
2021/03/11 07:44:52;;;;;;;2.17;1.77;;;9.60;99.90;;;;;;5113518;28;20483;-81
2021/03/11 07:47:19;;;;;;;1.20;1.10;;;9.70;99.90;;;;;;5113755;28;20519;-82
2021/03/11 07:49:46;;;;;;;2.27;1.50;;;9.80;99.90;;;;;;5113868;28;20443;-82
2021/03/11 07:52:13;;;;;;;1.30;1.20;;;9.90;99.90;;;;;;5113866;28;20460;-81
2021/03/11 07:54:40;;;;;;;1.33;1.13;;;9.80;99.90;;;;;;5113038;28;20823;-81
2021/03/11 07:57:06;;;;;;;1.10;1.00;;;9.80;99.90;;;;;;5113724;28;20472;-82
2021/03/11 07:59:34;;;;;;;1.77;1.27;;;9.80;99.90;;;;;;5113790;28;20451;-82
2021/03/11 08:02:06;;;;;;;2.00;1.43;;;9.80;99.90;;;;;;5113697;28;20451;-81
2021/03/11 08:04:34;;;;;;;1.20;1.10;;;10.00;99.90;;;;;;5113331;28;20472;-82
2021/03/11 08:07:17;;;;;;;6.03;1.17;;;10.20;99.90;;;;;;5113300;28;20463;-82
2021/03/11 08:09:46;;;;;;;1.80;1.27;;;10.30;99.90;;;;;;5113604;28;20431;-83
2021/03/11 08:12:29;;;;;;;2.13;1.00;;;10.40;99.90;;;;;;5113388;28;20419;-82
2021/03/11 08:14:56;;;;;;;1.27;1.20;;;10.40;99.90;;;;;;5113638;28;20424;-82
2021/03/11 08:17:42;;;;;;;1.80;1.10;;;10.50;99.80;;;;;;5113248;28;21070;-82
2021/03/11 08:20:30;;;;;;;1.50;1.40;;;10.60;99.40;;;;;;5113281;28;20423;-81
2021/03/11 08:23:03;;;;;;;1.97;1.00;;;10.80;99.30;;;;;;5113126;28;20513;-82
2021/03/11 08:25:43;;;;;;;4.40;1.30;;;10.90;98.90;;;;;;5113379;28;20482;-82
2021/03/11 08:28:36;;;;;;;1.67;1.10;;;10.90;98.70;;;;;;5113062;28;20493;-81
2021/03/11 08:31:04;;;;;;;1.87;1.20;;;10.90;98.50;;;;;;5113615;28;20855;-82
2021/03/11 08:33:55;;;;;;;1.10;1.00;;;10.80;98.70;;;;;;5113511;28;20522;-82
2021/03/11 08:36:39;;;;;;;1.23;1.13;;;10.80;98.80;;;;;;5113177;28;20851;-82
2021/03/11 08:39:30;;;;;;;1.10;1.00;;;10.80;98.80;;;;;;5113169;28;20431;-82
2021/03/11 08:41:57;;;;;;;3.03;0.97;;;10.90;99.10;;;;;;5113454;28;20423;-82
2021/03/11 08:44:42;;;;;;;1.40;1.00;;;10.90;99.70;;;;;;5113332;28;20486;-82
2021/03/11 08:47:10;;;;;;;0.80;0.80;;;10.90;99.90;;;;;;5113261;28;20467;-81
2021/03/11 08:49:38;;;;;;;0.80;0.80;;;11.00;99.90;;;;;;5113326;28;20451;-82
2021/03/11 08:52:05;;;;;;;1.43;0.97;;;11.20;99.90;;;;;;5113324;28;20504;-82
2021/03/11 08:54:31;;;;;;;1.13;0.90;;;11.30;99.70;;;;;;5113303;28;20450;-82
2021/03/11 08:56:59;;;;;;;1.00;0.80;;;11.60;99.60;;;;;;5112881;28;21039;-83
2021/03/11 08:59:44;;;;;;;1.07;0.80;;;11.80;99.10;;;;;;5113302;28;20451;-82
2021/03/11 09:02:33;;;;;;;0.80;0.80;;;12.00;99.30;;;;;;5113229;28;20427;-82
2021/03/11 09:04:59;;;;;;;0.90;0.87;;;12.20;98.70;;;;;;5113120;28;20487;-82
2021/03/11 09:07:32;;;;;;;0.90;0.70;;;12.50;98.00;;;;;;5116116;28;20470;-82
2021/03/11 09:09:58;;;;;;;0.90;0.80;;;12.60;97.70;;;;;;5116801;28;20435;-82
2021/03/11 09:12:33;;;;;;;0.80;0.80;;;12.70;96.70;;;;;;5116910;28;20527;-82
2021/03/11 09:15:00;;;;;;;1.67;0.87;;;12.60;97.00;;;;;;5116487;28;20926;-82
2021/03/11 09:17:29;;;;;;;2.47;0.70;;;12.70;96.60;;;;;;5116575;28;20470;-83
2021/03/11 09:20:00;;;;;;;0.83;0.80;;;12.70;96.10;;;;;;5116177;28;20870;-81
2021/03/11 09:22:29;;;;;;;1.00;0.83;;;12.50;96.00;;;;;;5116317;28;20497;-82
2021/03/11 09:25:08;;;;;;;1.03;0.80;;;12.60;96.50;;;;;;5116486;28;20481;-82
2021/03/11 09:27:37;;;;;;;1.40;0.70;;;12.60;95.90;;;;;;5116184;28;20451;-81
2021/03/11 09:30:06;;;;;;;1.57;1.10;;;12.80;95.50;;;;;;5116483;28;20427;-81
2021/03/11 09:32:34;;;;;;;0.70;0.70;;;12.70;95.60;;;;;;5116352;28;20500;-81
2021/03/11 09:35:03;;;;;;;1.33;0.77;;;12.80;95.50;;;;;;5115978;28;20950;-81
2021/03/11 09:37:47;;;;;;;1.23;0.87;;;12.70;95.40;;;;;;5116184;28;20474;-78
2021/03/11 09:40:17;;;;;;;1.43;0.80;;;12.60;95.50;;;;;;5116136;28;20455;-78
2021/03/11 09:43:08;;;;;;;0.60;0.60;;;12.60;95.90;;;;;;5116070;28;20439;-78
2021/03/11 09:45:37;;;;;;;1.33;0.60;;;12.50;95.80;;;;;;5111711;28;20490;-78
2021/03/11 09:48:09;;;;;;;1.07;0.97;;;12.50;96.10;;;;;;5116038;28;20470;-78
2021/03/11 09:50:37;;;;;;;1.00;0.70;;;12.90;96.40;;;;;;5115951;28;20428;-77
2021/03/11 09:53:03;;;;;;;1.00;0.80;;;13.20;95.60;;;;;;5116029;27;20427;-77
2021/03/11 09:55:30;;;;;;;0.83;0.80;;;13.20;95.20;;;;;;5115884;28;20466;-77
2021/03/11 09:57:56;;;;;;;0.67;0.67;;;13.20;95.10;;;;;;5115946;28;20431;-78
2021/03/11 10:00:24;;;;;;;0.90;0.70;;;13.00;95.60;;;;;;5115599;28;20910;-77
2021/03/11 10:02:51;;;;;;;0.70;0.70;;;12.90;96.10;;;;;;5116029;27;20450;-77
2021/03/11 10:05:18;;;;;;;0.60;0.60;;;12.80;96.10;;;;;;5115673;28;20463;-78
2021/03/11 10:07:54;;;;;;;4.23;0.70;;;12.60;96.80;;;;;;5115496;27;20898;-77
2021/03/11 10:10:21;;;;;;;0.70;0.67;;;12.40;97.20;;;;;;5115700;28;20430;-77
2021/03/11 10:12:47;;;;;;;1.03;0.80;;;12.30;97.60;;;;;;5115328;28;20427;-77
2021/03/11 10:15:14;;;;;;;1.37;0.60;;;12.40;98.00;;;;;;5115474;28;20431;-77
2021/03/11 10:17:42;;;;;;;1.47;0.70;;;12.50;97.80;;;;;;5115119;28;20436;-77
2021/03/11 10:20:27;;;;;;;0.60;0.60;;;12.40;98.20;;;;;;5115205;28;20907;-77
2021/03/11 10:23:13;;;;;;;1.27;0.60;;;12.50;98.60;;;;;;5115136;28;20910;-77
2021/03/11 10:25:40;;;;;;;0.87;0.57;;;12.50;99.10;;;;;;5115248;28;20903;-77
2021/03/11 10:28:06;;;;;;;0.70;0.53;;;12.50;99.20;;;;;;5114816;28;20973;-78
2021/03/11 10:30:33;;;;;;;2.90;0.50;;;12.40;99.60;;;;;;5115216;28;20495;-77
2021/03/11 10:33:02;;;;;;;0.67;0.60;;;12.40;99.90;;;;;;5115296;28;20446;-77
2021/03/11 10:35:30;;;;;;;0.87;0.53;;;12.50;99.90;;;;;;5115132;28;20474;-77
2021/03/11 10:38:14;;;;;;;0.70;0.70;;;12.50;99.90;;;;;;5115108;28;20432;-77
2021/03/11 10:40:40;;;;;;;0.60;0.60;;;12.50;99.90;;;;;;5115069;28;20427;-77
2021/03/11 10:43:18;;;;;;;0.60;0.60;;;12.60;99.90;;;;;;5115042;27;20775;-82
2021/03/11 10:45:45;;;;;;;0.67;0.60;;;12.90;99.90;;;;;;5114849;28;20511;-79
2021/03/11 10:48:13;;;;;;;2.00;0.97;;;12.90;99.90;;;;;;5114737;28;20419;-78
2021/03/11 10:50:41;;;;;;;0.50;0.50;;;13.00;99.90;;;;;;5114893;28;20485;-77
2021/03/11 10:53:08;;;;;;;0.80;0.70;;;12.80;99.90;;;;;;5114848;28;20435;-76
2021/03/11 10:55:35;;;;;;;0.50;0.50;;;12.80;99.90;;;;;;5114392;28;21000;-77
2021/03/11 10:58:04;;;;;;;3.33;0.57;;;12.70;99.90;;;;;;5114400;28;20427;-77
2021/03/11 11:00:32;;;;;;;0.60;0.50;;;12.60;99.90;;;;;;5114602;28;20436;-77
2021/03/11 11:03:00;;;;;;;0.70;0.50;;;12.60;99.90;;;;;;5114623;28;20432;-78
2021/03/11 11:05:29;;;;;;;0.50;0.50;;;12.60;99.90;;;;;;5114424;28;20491;-77
2021/03/11 11:07:55;;;;;;;0.50;0.50;;;12.60;99.90;;;;;;5114221;28;20797;-77
2021/03/11 11:10:24;;;;;;;0.50;0.50;;;12.50;99.90;;;;;;5114379;28;20485;-77
2021/03/11 11:12:51;;;;;;;0.80;0.60;;;12.40;99.90;;;;;;5115014;28;20928;-77
2021/03/11 11:15:18;;;;;;;0.70;0.50;;;12.20;99.90;;;;;;5114122;28;20423;-80
2021/03/11 11:17:44;;;;;;;0.60;0.60;;;12.10;99.90;;;;;;5114401;28;20476;-81
2021/03/11 11:20:14;;;;;;;0.93;0.53;;;11.90;99.90;;;;;;5114540;28;20457;-86
2021/03/11 11:22:41;;;;;;;0.70;0.60;;;11.70;99.90;;;;;;5117417;28;20416;-87
2021/03/11 11:25:09;;;;;;;0.70;0.70;;;11.70;99.90;;;;;;5118839;28;20463;-78
2021/03/11 11:27:35;;;;;;;1.60;0.70;;;11.50;99.90;;;;;;5113995;28;20428;-77
2021/03/11 11:30:07;;;;;;;0.87;0.70;;;11.40;99.90;;;;;;5113534;28;20431;-77
2021/03/11 11:32:34;;;;;;;0.57;0.50;;;11.30;99.90;;;;;;5113871;28;20416;-77
2021/03/11 11:35:00;;;;;;;1.27;0.70;;;11.30;99.90;;;;;;5114030;28;20443;-77
2021/03/11 11:37:27;;;;;;;0.60;0.60;;;11.10;99.90;;;;;;5114108;28;20467;-77
2021/03/11 11:39:54;;;;;;;0.70;0.70;;;11.00;99.90;;;;;;5114074;28;20443;-77
2021/03/11 11:42:20;;;;;;;0.60;0.60;;;11.00;99.90;;;;;;5114070;28;20407;-77
2021/03/11 11:44:47;;;;;;;0.60;0.60;;;11.00;99.90;;;;;;5113903;28;20489;-77
2021/03/11 11:47:14;;;;;;;1.13;0.60;;;10.90;99.90;;;;;;5113748;28;20462;-77
2021/03/11 11:49:41;;;;;;;0.70;0.60;;;10.80;99.90;;;;;;5114367;28;20435;-77
2021/03/11 11:52:08;;;;;;;0.70;0.70;;;10.80;99.90;;;;;;5114022;28;20837;-82
2021/03/11 11:54:35;;;;;;;0.70;0.70;;;10.80;99.90;;;;;;5113593;28;20937;-83
2021/03/11 11:57:03;;;;;;;1.43;0.50;;;10.80;99.90;;;;;;5113825;28;20799;-83
2021/03/11 11:59:30;;;;;;;0.70;0.70;;;10.80;99.90;;;;;;5113885;28;20431;-83
2021/03/11 12:01:56;;;;;;;0.83;0.60;;;10.80;99.90;;;;;;5113763;28;20496;-82
2021/03/11 12:04:24;;;;;;;0.50;0.50;;;10.90;99.90;;;;;;5113641;28;20432;-82
2021/03/11 12:06:53;;;;;;;1.20;0.70;;;11.10;99.90;;;;;;5113591;28;20549;-83
2021/03/11 12:09:23;;;;;;;0.60;0.60;;;11.20;99.90;;;;;;5113393;28;20436;-83
2021/03/11 12:11:50;;;;;;;0.63;0.63;;;11.30;99.90;;;;;;5113353;28;20435;-82
2021/03/11 12:14:20;;;;;;;0.70;0.60;;;11.20;99.90;;;;;;5114142;28;20443;-82
2021/03/11 12:16:52;;;;;;;1.03;0.80;;;11.20;99.90;;;;;;5113624;28;20455;-82
2021/03/11 12:19:19;;;;;;;1.43;1.00;;;11.20;99.90;;;;;;5113544;28;20446;-83
2021/03/11 12:21:50;;;;;;;0.97;0.97;;;11.20;99.90;;;;;;5113670;28;20817;-82
2021/03/11 12:24:17;;;;;;;0.50;0.50;;;11.20;99.90;;;;;;5113454;28;20946;-82
2021/03/11 12:26:44;;;;;;;0.67;0.53;;;11.20;99.90;;;;;;5113294;28;20467;-82
2021/03/11 12:29:14;;;;;;;0.70;0.70;;;11.30;99.90;;;;;;5113011;28;20477;-83
2021/03/11 12:31:43;;;;;;;0.63;0.63;;;11.40;99.90;;;;;;5113274;28;20801;-82
2021/03/11 12:34:12;;;;;;;0.60;0.60;;;11.50;99.90;;;;;;5113148;28;20522;-83
2021/03/11 12:36:41;;;;;;;0.60;0.60;;;11.70;99.90;;;;;;5113195;28;20962;-83
2021/03/11 12:39:15;;;;;;;1.17;0.50;;;11.80;99.90;;;;;;5113220;28;20415;-82
2021/03/11 12:41:47;;;;;;;0.60;0.60;;;11.80;99.90;;;;;;5117132;28;20897;-83
2021/03/11 12:44:15;;;;;;;0.77;0.77;;;11.90;99.90;;;;;;5117238;28;20431;-83
2021/03/11 12:46:46;;;;;;;0.77;0.50;;;12.00;99.90;;;;;;5116932;28;20443;-83
2021/03/11 12:49:13;;;;;;;0.70;0.70;;;12.00;99.90;;;;;;5117275;27;20427;-83
2021/03/11 12:51:43;;;;;;;1.00;0.60;;;12.00;99.90;;;;;;5117319;28;20439;-83
2021/03/11 12:54:10;;;;;;;0.60;0.60;;;12.00;99.90;;;;;;5116915;28;20408;-84
2021/03/11 12:56:36;;;;;;;0.70;0.67;;;12.00;99.90;;;;;;5116738;28;20831;-84
2021/03/11 12:59:09;;;;;;;0.57;0.50;;;12.00;99.90;;;;;;5117461;28;20830;-83
2021/03/11 13:01:36;;;;;;;0.80;0.70;;;12.10;99.90;;;;;;5117070;28;20407;-83